Time;durP1;ratioP1;P1;durP2;ratioP2;P2;SDS_P1;SDS_P2;PMS_P1;PMS_P2;Temp;Humidity;BMP_temperature;BMP_pressure;BME280_temperature;BME280_humidity;BME280_pressure;Samples;Min_cycle;Max_cycle;Signal;HPM_P1;HPM_P2
2022/11/02 00:01:29;;;;;;;2.35;2.15;;;;;;;21.90;48.71;101782.75;4183363;28;20075;-72
2022/11/02 00:03:31;;;;;;;1.70;1.60;;;;;;;21.82;48.19;101771.00;4194428;28;20118;-69
2022/11/02 00:05:32;;;;;;;1.98;1.80;;;;;;;21.92;48.50;101783.34;4198024;28;20102;-70
2022/11/02 00:07:33;;;;;;;2.20;2.00;;;;;;;21.92;48.57;101786.13;4206910;28;20052;-71
2022/11/02 00:09:35;;;;;;;2.25;2.05;;;;;;;21.92;48.60;101786.13;4199612;28;20193;-71
2022/11/02 00:11:37;;;;;;;2.25;2.05;;;;;;;21.91;48.38;101795.59;4199562;28;20037;-71
2022/11/02 00:13:38;;;;;;;1.83;1.70;;;;;;;21.83;48.37;101783.00;4199298;28;20040;-71
2022/11/02 00:15:39;;;;;;;1.73;1.63;;;;;;;21.91;48.52;101798.38;4199372;28;20082;-71
2022/11/02 00:17:45;;;;;;;2.85;2.05;;;;;;;21.89;48.39;101793.06;4198940;28;20045;-71
2022/11/02 00:19:46;;;;;;;2.60;2.08;;;;;;;21.87;48.46;101800.03;4185294;28;20048;-70
2022/11/02 00:21:51;;;;;;;2.10;1.90;;;;;;;21.87;48.56;101800.84;4197062;28;20025;-69
2022/11/02 00:23:56;;;;;;;2.43;2.23;;;;;;;21.75;48.66;101781.53;4198889;28;20072;-69
2022/11/02 00:26:01;;;;;;;2.33;2.13;;;;;;;21.92;48.57;101812.03;4198119;28;20675;-68
2022/11/02 00:28:05;;;;;;;2.03;1.90;;;;;;;21.90;48.65;101805.91;4197277;28;20094;-68
2022/11/02 00:30:07;;;;;;;1.85;1.75;;;;;;;21.93;48.44;101815.66;4198821;28;20036;-69
2022/11/02 00:32:14;;;;;;;2.13;1.92;;;;;;;21.87;48.75;101808.38;4197653;28;20438;-68
2022/11/02 00:34:16;;;;;;;2.42;1.60;;;;;;;21.93;48.57;101816.50;4198742;28;20045;-69
2022/11/02 00:36:17;;;;;;;2.38;1.80;;;;;;;21.93;48.60;101826.81;4198653;28;20098;-68
2022/11/02 00:38:18;;;;;;;2.40;2.20;;;;;;;21.80;48.63;101801.06;4198784;28;20090;-68
2022/11/02 00:40:20;;;;;;;2.17;1.98;;;;;;;21.93;48.69;101816.50;4201268;28;20089;-69
2022/11/02 00:42:21;;;;;;;2.03;1.83;;;;;;;21.88;48.41;101815.63;4202285;28;20090;-70
2022/11/02 00:44:22;;;;;;;2.45;2.03;;;;;;;21.94;48.65;101825.69;4197209;28;20101;-72
2022/11/02 00:46:24;;;;;;;2.40;2.08;;;;;;;21.94;48.63;101829.31;4198599;28;20102;-71
2022/11/02 00:48:28;;;;;;;2.22;1.80;;;;;;;21.94;48.64;101831.28;4198525;28;20040;-71
2022/11/02 00:50:29;;;;;;;2.20;2.00;;;;;;;21.93;48.75;101832.38;4199096;28;20036;-70
2022/11/02 00:52:30;;;;;;;2.33;2.08;;;;;;;21.94;48.52;101839.63;4199126;28;20553;-71
2022/11/02 00:54:40;;;;;;;2.17;1.98;;;;;;;21.94;48.51;101840.47;4197183;28;20075;-72
2022/11/02 00:56:42;;;;;;;2.30;2.10;;;;;;;21.94;48.49;101834.06;4192385;28;20044;-72
2022/11/02 00:58:43;;;;;;;2.22;2.08;;;;;;;21.93;48.83;101840.75;4180023;28;20091;-73
2022/11/02 01:00:47;;;;;;;2.22;2.03;;;;;;;21.95;48.50;101846.91;4184235;28;20106;-71
2022/11/02 01:02:58;;;;;;;2.42;1.90;;;;;;;21.90;48.71;101839.34;4197846;28;20040;-71
2022/11/02 01:04:59;;;;;;;2.63;2.00;;;;;;;21.95;48.58;101852.47;4198211;28;20098;-71
2022/11/02 01:07:04;;;;;;;2.45;2.00;;;;;;;21.95;48.73;101853.31;4197892;28;20137;-72
2022/11/02 01:09:05;;;;;;;2.30;2.10;;;;;;;21.96;48.61;101856.94;4199007;28;20455;-71
2022/11/02 01:11:16;;;;;;;2.25;1.70;;;;;;;21.96;48.69;101866.13;4198750;28;20086;-71
2022/11/02 01:13:17;;;;;;;2.72;2.05;;;;;;;21.98;48.54;101863.06;4192023;28;20086;-72
2022/11/02 01:15:19;;;;;;;2.00;1.80;;;;;;;21.97;48.53;101867.81;4196533;28;20086;-72
2022/11/02 01:17:20;;;;;;;3.50;2.00;;;;;;;21.97;48.45;101870.59;4198523;28;20044;-72
2022/11/02 01:19:21;;;;;;;2.67;2.47;;;;;;;21.98;48.53;101874.22;4198573;28;20094;-72
2022/11/02 01:21:23;;;;;;;2.28;2.00;;;;;;;21.95;48.43;101872.00;4186570;28;20053;-71
2022/11/02 01:23:31;;;;;;;1.80;1.70;;;;;;;21.95;48.64;101874.78;4181901;28;20041;-71
2022/11/02 01:25:32;;;;;;;3.50;1.92;;;;;;;21.99;48.67;101887.03;4188377;28;20040;-71
2022/11/02 01:27:33;;;;;;;2.00;1.90;;;;;;;21.98;48.39;101883.41;4197699;28;20028;-71
2022/11/02 01:29:34;;;;;;;2.55;2.10;;;;;;;21.81;48.64;101864.06;4197568;28;20048;-70
2022/11/02 01:31:36;;;;;;;7.70;1.95;;;;;;;21.97;48.74;101887.31;4196958;28;20099;-72
2022/11/02 01:33:42;;;;;;;3.00;2.10;;;;;;;22.01;48.74;101901.56;4198288;28;20094;-72
2022/11/02 01:35:46;;;;;;;2.00;1.80;;;;;;;21.89;48.50;101879.44;4197527;28;20097;-71
2022/11/02 01:37:50;;;;;;;2.10;1.90;;;;;;;22.00;48.68;101902.69;4198425;28;20036;-71
2022/11/02 01:39:52;;;;;;;3.20;2.15;;;;;;;21.29;48.45;101778.31;4198499;28;20021;-72
2022/11/02 01:41:54;;;;;;;1.92;1.83;;;;;;;21.88;48.44;101874.97;4197409;28;20029;-72
2022/11/02 01:43:57;;;;;;;3.35;2.20;;;;;;;22.02;48.88;101897.66;4197897;28;20048;-72
2022/11/02 01:46:11;;;;;;;2.22;2.03;;;;;;;22.00;48.46;101905.47;4197863;28;20028;-73
2022/11/02 01:48:15;;;;;;;2.08;1.88;;;;;;;21.90;48.71;101883.94;4196694;28;20028;-71
2022/11/02 01:50:22;;;;;;;2.20;2.00;;;;;;;22.00;48.74;101900.75;4196853;28;20037;-71
2022/11/02 01:52:34;;;;;;;2.10;1.90;;;;;;;22.00;48.76;101899.91;4197848;28;20346;-71
2022/11/02 01:54:44;;;;;;;3.75;2.00;;;;;;;22.02;48.87;101908.81;4197879;28;20040;-71
2022/11/02 01:56:55;;;;;;;2.20;2.00;;;;;;;21.95;48.48;101888.72;4197202;28;20110;-70
2022/11/02 01:59:01;;;;;;;2.28;2.08;;;;;;;22.03;48.58;101904.91;4195665;28;20044;-70
2022/11/02 02:01:03;;;;;;;2.78;1.80;;;;;;;21.98;48.47;101896.53;4192061;28;20028;-70
2022/11/02 02:03:11;;;;;;;2.20;2.00;;;;;;;22.00;48.78;101902.69;4196229;28;20032;-70
2022/11/02 02:05:14;;;;;;;2.10;1.90;;;;;;;22.04;48.82;101904.69;4194659;28;20434;-70
2022/11/02 02:07:16;;;;;;;2.47;2.25;;;;;;;22.05;48.60;101911.09;4197849;28;20032;-71
2022/11/02 02:09:22;;;;;;;1.83;1.67;;;;;;;21.81;48.35;101872.44;4197303;28;20040;-70
2022/11/02 02:11:35;;;;;;;2.05;1.77;;;;;;;22.04;48.36;101917.78;4193744;28;20490;-71
2022/11/02 02:13:36;;;;;;;2.17;2.00;;;;;;;22.05;48.28;101925.03;4193860;28;20093;-72
2022/11/02 02:16:10;;;;;;;2.88;2.00;;;;;;;22.05;48.64;101913.88;4182202;28;20037;-72
2022/11/02 02:18:36;;;;;;;2.33;2.13;;;;;;;22.03;48.49;101916.91;4189852;28;20045;-70
2022/11/02 02:20:43;;;;;;;2.58;2.30;;;;;;;22.06;48.64;101915.56;4187251;28;20040;-70
2022/11/02 02:23:06;;;;;;;2.28;2.10;;;;;;;22.07;48.62;101917.22;4194865;28;20048;-70
2022/11/02 02:25:35;;;;;;;2.35;2.15;;;;;;;22.07;48.64;101922.81;4198003;28;20036;-70
2022/11/02 02:28:18;;;;;;;2.17;1.98;;;;;;;22.05;48.63;101920.28;4196459;28;20102;-71
2022/11/02 02:30:19;;;;;;;2.35;2.15;;;;;;;22.08;48.07;101918.91;4155627;28;20041;-69
2022/11/02 02:32:21;;;;;;;2.25;1.90;;;;;;;22.11;48.68;101925.91;4162180;28;20064;-70
2022/11/02 02:34:37;;;;;;;3.50;2.05;;;;;;;21.91;48.23;101893.97;4161880;28;20069;-69
2022/11/02 02:37:13;;;;;;;2.40;1.95;;;;;;;22.10;48.38;101929.81;4191423;28;20048;-69
2022/11/02 02:39:14;;;;;;;2.53;2.08;;;;;;;22.16;48.42;101931.56;4186839;28;20086;-69
2022/11/02 02:41:29;;;;;;;2.30;2.10;;;;;;;22.15;48.05;101936.28;4198035;28;20484;-69
2022/11/02 02:43:39;;;;;;;3.08;2.00;;;;;;;22.18;48.35;101938.56;4189699;28;20037;-69
2022/11/02 02:45:40;;;;;;;2.55;2.30;;;;;;;22.20;47.99;101943.84;4185992;28;20422;-70
2022/11/02 02:48:14;;;;;;;3.35;1.90;;;;;;;22.18;47.99;101941.34;4194901;28;20040;-69
2022/11/02 02:50:20;;;;;;;2.22;2.00;;;;;;;22.19;48.22;101947.75;4193499;28;20158;-70
2022/11/02 02:52:25;;;;;;;2.83;2.08;;;;;;;22.16;48.06;101937.13;4195788;28;20063;-68
2022/11/02 02:54:40;;;;;;;2.50;2.13;;;;;;;22.17;48.03;101950.78;4190317;28;20028;-70
2022/11/02 02:56:48;;;;;;;2.40;2.20;;;;;;;22.18;47.99;101958.06;4194909;28;20094;-68
2022/11/02 02:59:18;;;;;;;3.92;2.00;;;;;;;22.11;48.29;101935.09;4195374;28;20090;-70
2022/11/02 03:01:20;;;;;;;2.20;2.00;;;;;;;22.20;48.11;101958.63;4172707;28;20045;-70
2022/11/02 03:03:24;;;;;;;2.33;1.92;;;;;;;22.20;48.24;101960.59;4192399;28;20029;-69
2022/11/02 03:05:32;;;;;;;2.92;2.00;;;;;;;22.11;47.99;101951.81;4196688;28;20048;-69
2022/11/02 03:07:34;;;;;;;3.30;1.60;;;;;;;22.20;48.02;101967.00;4196987;28;20041;-69
2022/11/02 03:09:40;;;;;;;2.75;2.20;;;;;;;22.19;48.10;101970.91;4190757;28;20094;-69
2022/11/02 03:11:58;;;;;;;2.08;1.80;;;;;;;22.07;48.08;101953.47;4196329;28;20414;-69
2022/11/02 03:14:11;;;;;;;1.70;1.60;;;;;;;22.20;48.32;101969.78;4202233;28;20036;-69
2022/11/02 03:16:48;;;;;;;3.00;1.95;;;;;;;22.17;47.92;101967.53;4213691;28;20532;-69
2022/11/02 03:19:03;;;;;;;2.30;2.10;;;;;;;22.19;47.94;101959.75;4192332;28;20056;-68
2022/11/02 03:21:24;;;;;;;3.58;2.08;;;;;;;22.22;47.98;101969.50;4186841;28;20040;-69
2022/11/02 03:23:30;;;;;;;2.42;1.90;;;;;;;22.21;47.93;101951.94;4196287;28;20090;-69
2022/11/02 03:25:44;;;;;;;2.60;2.17;;;;;;;22.19;48.03;101965.31;4189672;28;20094;-69
2022/11/02 03:28:03;;;;;;;2.38;2.17;;;;;;;22.11;48.14;101946.25;4188549;28;20090;-69
2022/11/02 03:30:05;;;;;;;2.35;2.15;;;;;;;22.21;47.85;101963.09;4186535;28;20467;-70
2022/11/02 03:32:18;;;;;;;2.58;2.25;;;;;;;22.21;48.09;101963.09;4197641;28;20066;-70
2022/11/02 03:34:38;;;;;;;2.80;2.40;;;;;;;22.19;48.18;101964.50;4195428;28;20044;-70
2022/11/02 03:36:46;;;;;;;2.58;2.38;;;;;;;22.12;48.19;101953.53;4196458;28;20044;-69
2022/11/02 03:38:51;;;;;;;3.17;2.20;;;;;;;;;;4198475;28;20033;-69
2022/11/02 03:40:55;;;;;;;2.05;1.90;;;;;;;22.23;48.34;101971.22;4199410;28;20483;-70
2022/11/02 03:42:59;;;;;;;3.97;2.20;;;;;;;22.19;48.31;101962.53;4199516;28;20037;-70
2022/11/02 03:45:16;;;;;;;3.43;1.90;;;;;;;22.09;48.16;101951.28;4197935;28;20044;-69
2022/11/02 03:47:20;;;;;;;2.28;2.00;;;;;;;22.25;48.58;101975.41;4200268;28;20052;-68
2022/11/02 03:49:22;;;;;;;2.63;2.00;;;;;;;22.22;48.44;101967.59;4216183;28;20032;-68
2022/11/02 03:51:25;;;;;;;2.33;2.13;;;;;;;22.24;48.34;101968.16;4216431;28;20090;-69
2022/11/02 03:53:31;;;;;;;4.22;2.47;;;;;;;22.25;48.42;101969.00;4199603;28;20103;-71
2022/11/02 03:55:37;;;;;;;3.30;2.22;;;;;;;21.60;48.56;101870.53;4198857;28;20049;-70
2022/11/02 03:57:47;;;;;;;2.28;2.08;;;;;;;22.25;48.32;101975.41;4199593;28;20041;-70
2022/11/02 03:59:49;;;;;;;2.83;2.35;;;;;;;22.15;48.05;101952.19;4199565;28;20106;-69
2022/11/02 04:01:51;;;;;;;2.40;2.20;;;;;;;22.17;48.20;101956.38;4199099;28;20059;-69
2022/11/02 04:03:54;;;;;;;3.28;2.25;;;;;;;22.24;48.21;101968.16;4203843;28;20119;-69
2022/11/02 04:06:01;;;;;;;3.10;2.30;;;;;;;22.25;48.41;101978.19;4200012;28;20546;-69
2022/11/02 04:08:23;;;;;;;2.25;1.90;;;;;;;22.24;48.63;101978.47;4200164;28;20041;-69
2022/11/02 04:10:24;;;;;;;4.60;2.20;;;;;;;22.25;48.28;101969.00;4199165;28;20048;-69
2022/11/02 04:14:51;;;;;;;2.38;2.17;;;;;;;22.13;48.71;101960.81;4202728;28;20086;-69
2022/11/02 04:19:28;;;;;;;2.25;2.05;;;;;;;22.21;48.46;101973.41;4180200;28;20106;-69
2022/11/02 04:21:33;;;;;;;2.20;1.98;;;;;;;22.16;48.77;101971.41;4200106;28;20395;-69
2022/11/02 04:25:54;;;;;;;3.45;2.40;;;;;;;22.21;48.61;101987.34;4216670;28;20544;-69
2022/11/02 04:27:55;;;;;;;2.35;1.92;;;;;;;22.21;48.53;101985.41;4216082;28;20101;-69
2022/11/02 04:29:56;;;;;;;2.30;2.00;;;;;;;22.12;48.76;101975.00;4215908;28;20061;-69
2022/11/02 04:31:58;;;;;;;3.50;2.50;;;;;;;22.19;48.48;101993.19;4216278;28;20036;-69
2022/11/02 04:34:02;;;;;;;3.13;2.53;;;;;;;22.16;48.66;101988.16;4202836;28;20033;-69
2022/11/02 04:36:07;;;;;;;2.47;2.10;;;;;;;22.18;48.80;101990.69;4198704;28;20488;-69
2022/11/02 04:40:28;;;;;;;3.25;2.10;;;;;;;22.20;48.58;101994.03;4183855;28;20538;-69
2022/11/02 04:42:29;;;;;;;2.33;2.13;;;;;;;22.18;48.76;101997.09;4183178;28;20036;-69
2022/11/02 04:44:33;;;;;;;1.95;1.83;;;;;;;22.06;48.80;101974.91;4182443;28;20045;-69
2022/11/02 04:46:36;;;;;;;2.15;1.92;;;;;;;22.17;48.73;101995.41;4182338;28;20373;-69
2022/11/02 04:48:43;;;;;;;2.30;2.05;;;;;;;22.03;49.02;101972.66;4182653;28;20041;-69
2022/11/02 04:50:47;;;;;;;3.10;2.20;;;;;;;21.88;48.87;101943.81;4181472;28;20439;-69
2022/11/02 04:52:54;;;;;;;2.38;2.17;;;;;;;22.12;48.74;101992.56;4182691;28;20082;-69
2022/11/02 04:54:59;;;;;;;3.72;2.25;;;;;;;22.13;49.05;101983.13;4182221;28;20079;-70
2022/11/02 04:57:00;;;;;;;2.80;2.23;;;;;;;22.04;49.01;101974.34;4197119;28;20040;-69
2022/11/02 04:59:04;;;;;;;2.78;2.58;;;;;;;22.12;48.86;101998.13;4198884;28;20343;-69
2022/11/02 05:01:07;;;;;;;2.60;2.15;;;;;;;22.08;49.21;101992.25;4195004;28;20091;-69
2022/11/02 05:03:08;;;;;;;2.08;1.88;;;;;;;22.13;48.74;101999.84;4199062;28;20106;-69
2022/11/02 05:05:11;;;;;;;2.45;2.05;;;;;;;22.14;48.92;102000.69;4197243;28;20093;-69
2022/11/02 05:07:12;;;;;;;2.47;2.25;;;;;;;22.14;49.07;102003.47;4198394;28;20036;-69
2022/11/02 05:09:16;;;;;;;2.70;2.50;;;;;;;22.12;48.81;102014.88;4198559;28;20036;-69
2022/11/02 05:11:18;;;;;;;2.72;2.47;;;;;;;21.95;48.82;101977.88;4198401;28;20095;-69
2022/11/02 05:13:19;;;;;;;3.63;2.33;;;;;;;22.13;49.11;101997.06;4199192;28;20032;-70
2022/11/02 05:15:20;;;;;;;2.42;2.22;;;;;;;22.14;48.83;101997.91;4198092;28;20086;-70
2022/11/02 05:17:22;;;;;;;2.22;2.03;;;;;;;22.13;48.87;101997.06;4198146;28;20036;-69
2022/11/02 05:19:23;;;;;;;2.80;2.17;;;;;;;22.13;48.83;101999.84;4198489;28;20041;-70
2022/11/02 05:21:24;;;;;;;2.83;2.60;;;;;;;22.11;49.02;101996.44;4198823;28;20028;-69
2022/11/02 05:23:26;;;;;;;4.25;2.55;;;;;;;22.13;48.89;102001.75;4198143;28;20024;-69
2022/11/02 05:25:27;;;;;;;2.42;1.85;;;;;;;22.10;48.77;101994.75;4198165;28;20048;-69
2022/11/02 05:27:29;;;;;;;3.08;2.28;;;;;;;22.14;49.10;102006.25;4198253;28;20087;-69
2022/11/02 05:29:30;;;;;;;2.40;2.20;;;;;;;22.14;48.80;102004.31;4199147;28;20117;-68
2022/11/02 05:31:31;;;;;;;2.47;2.28;;;;;;;22.12;48.85;101998.13;4197624;28;20487;-68
2022/11/02 05:33:32;;;;;;;3.40;2.80;;;;;;;22.05;48.94;101992.75;4197624;28;20044;-69
2022/11/02 05:35:34;;;;;;;2.60;2.40;;;;;;;22.15;48.95;102008.78;4197608;28;20036;-69
2022/11/02 05:37:37;;;;;;;2.53;2.33;;;;;;;22.15;48.93;102005.97;4198287;28;20102;-68
2022/11/02 05:39:39;;;;;;;2.28;2.08;;;;;;;22.13;48.79;102011.00;4197879;28;20391;-69
2022/11/02 05:41:40;;;;;;;2.20;2.00;;;;;;;22.14;48.68;102012.66;4198217;28;20086;-70
2022/11/02 05:43:41;;;;;;;3.45;2.40;;;;;;;22.14;48.83;102018.25;4197815;28;20040;-68
2022/11/02 05:45:43;;;;;;;2.45;2.25;;;;;;;22.14;49.04;102015.47;4196535;28;20103;-68
2022/11/02 05:47:44;;;;;;;2.78;2.30;;;;;;;22.14;48.88;102015.47;4199113;28;20472;-69
2022/11/02 05:49:45;;;;;;;2.75;2.03;;;;;;;22.15;48.95;102019.09;4196243;28;20036;-69
2022/11/02 05:51:47;;;;;;;2.60;2.28;;;;;;;22.15;48.81;102019.09;4201446;28;20048;-69
2022/11/02 05:53:49;;;;;;;2.30;2.10;;;;;;;22.10;49.03;102010.66;4193497;28;20032;-69
2022/11/02 05:55:56;;;;;;;2.40;2.10;;;;;;;21.94;48.87;101984.53;4197630;28;20044;-70
2022/11/02 05:58:00;;;;;;;2.55;2.10;;;;;;;22.12;48.82;102020.44;4197426;28;20093;-70
2022/11/02 06:00:05;;;;;;;3.15;2.13;;;;;;;22.15;48.95;102024.66;4198224;28;20081;-69
2022/11/02 06:02:07;;;;;;;2.65;2.45;;;;;;;22.15;49.09;102022.72;4197882;28;20077;-70
2022/11/02 06:04:08;;;;;;;2.33;2.10;;;;;;;22.14;48.68;102022.97;4198046;28;20093;-70
2022/11/02 06:06:11;;;;;;;3.35;2.22;;;;;;;22.13;49.05;102024.94;4199201;28;20102;-70
2022/11/02 06:08:12;;;;;;;2.33;2.13;;;;;;;22.13;49.00;102022.16;4196540;28;20048;-71
2022/11/02 06:10:16;;;;;;;2.20;2.08;;;;;;;22.12;48.90;102020.44;4199967;28;20037;-71
2022/11/02 06:12:17;;;;;;;2.28;2.08;;;;;;;22.02;49.06;102003.59;4201204;28;20435;-70
2022/11/02 06:14:18;;;;;;;3.53;2.47;;;;;;;22.10;48.70;102013.44;4182980;28;20041;-70
2022/11/02 06:16:20;;;;;;;2.85;2.33;;;;;;;21.88;48.98;101985.59;4191746;28;20085;-69
2022/11/02 06:18:21;;;;;;;2.30;2.10;;;;;;;22.12;49.08;102034.38;4196327;28;20101;-69
2022/11/02 06:20:23;;;;;;;3.63;2.22;;;;;;;22.12;48.89;102037.16;4201742;28;20044;-70
2022/11/02 06:22:27;;;;;;;3.97;2.15;;;;;;;22.10;48.79;102036.56;4189643;28;20020;-69
2022/11/02 06:24:28;;;;;;;2.30;1.80;;;;;;;22.12;49.14;102037.16;4197996;28;20041;-69
2022/11/02 06:26:29;;;;;;;2.50;2.30;;;;;;;22.14;49.07;102046.13;4197379;28;20483;-68
2022/11/02 06:28:33;;;;;;;2.50;2.30;;;;;;;22.04;48.89;102018.97;4201955;28;20102;-68
2022/11/02 06:30:34;;;;;;;2.50;2.30;;;;;;;22.14;49.05;102051.69;4197274;28;20426;-68
2022/11/02 06:32:35;;;;;;;2.63;2.42;;;;;;;22.13;48.96;102044.44;4197580;28;20094;-69
2022/11/02 06:34:37;;;;;;;2.65;2.40;;;;;;;22.14;48.73;102046.13;4197572;28;20086;-70
2022/11/02 06:36:38;;;;;;;2.60;2.40;;;;;;;22.15;49.01;102052.53;4200877;28;20113;-70
2022/11/02 06:38:40;;;;;;;2.58;2.38;;;;;;;22.17;48.75;102051.16;4208125;28;20036;-70
2022/11/02 06:40:42;;;;;;;2.97;2.20;;;;;;;22.06;48.82;102039.03;4201368;28;20101;-69
2022/11/02 06:42:46;;;;;;;2.10;1.90;;;;;;;22.16;48.94;102048.63;4201844;28;20028;-69
2022/11/02 06:44:47;;;;;;;2.63;2.43;;;;;;;22.15;48.73;102053.38;4197121;28;20441;-69
2022/11/02 06:46:51;;;;;;;2.42;2.22;;;;;;;22.15;48.86;102049.75;4197213;28;20045;-70
2022/11/02 06:48:58;;;;;;;2.80;2.60;;;;;;;22.13;48.80;102055.59;4197537;28;20537;-69
2022/11/02 06:51:00;;;;;;;2.40;2.20;;;;;;;22.08;48.98;102059.16;4197661;28;20032;-69
2022/11/02 06:53:02;;;;;;;2.20;2.00;;;;;;;22.15;48.62;102070.09;4197567;28;20040;-69
2022/11/02 06:55:04;;;;;;;2.90;2.38;;;;;;;22.15;48.66;102061.75;4198041;28;20044;-71
2022/11/02 06:57:05;;;;;;;2.20;2.00;;;;;;;22.15;48.73;102067.31;4197030;28;20053;-71
2022/11/02 06:59:06;;;;;;;2.13;1.92;;;;;;;22.15;48.70;102069.25;4197386;28;20476;-71
2022/11/02 07:01:08;;;;;;;2.45;2.25;;;;;;;22.14;48.94;102074.00;4197429;28;20045;-71
2022/11/02 07:03:10;;;;;;;2.40;2.20;;;;;;;22.16;48.57;102085.72;4197848;28;20094;-71
2022/11/02 07:05:12;;;;;;;2.78;2.38;;;;;;;22.08;48.72;102069.41;4196555;28;20040;-71
2022/11/02 07:07:13;;;;;;;2.47;2.28;;;;;;;22.06;49.01;102071.66;4197465;28;20036;-72
2022/11/02 07:09:14;;;;;;;2.28;2.10;;;;;;;22.15;48.88;102075.69;4197525;28;20074;-71
2022/11/02 07:11:21;;;;;;;2.40;2.17;;;;;;;22.15;49.03;102081.25;4197396;28;20078;-71
2022/11/02 07:13:25;;;;;;;2.30;2.10;;;;;;;22.11;48.81;102068.91;4181444;28;20053;-71
2022/11/02 07:15:27;;;;;;;2.20;2.00;;;;;;;22.16;49.04;102074.56;4183398;28;20037;-72
2022/11/02 07:17:28;;;;;;;2.50;2.30;;;;;;;22.17;48.96;102078.19;4183534;28;20021;-71
2022/11/02 07:19:29;;;;;;;2.60;2.40;;;;;;;21.94;48.84;102043.06;4183455;28;20099;-72
2022/11/02 07:21:31;;;;;;;2.65;2.45;;;;;;;22.15;49.04;102080.41;4183641;28;20546;-72
2022/11/02 07:23:41;;;;;;;4.15;2.55;;;;;;;22.18;48.47;102079.91;4183248;28;20106;-71
2022/11/02 07:25:42;;;;;;;2.17;2.05;;;;;;;22.05;48.64;102058.81;4180861;28;20853;-71
2022/11/02 07:27:43;;;;;;;2.20;2.00;;;;;;;22.15;48.93;102089.63;4189879;28;20434;-71
2022/11/02 07:29:45;;;;;;;2.78;2.55;;;;;;;22.15;48.66;102092.41;4199062;28;20434;-68
2022/11/02 07:31:46;;;;;;;3.90;2.30;;;;;;;22.13;48.99;102089.06;4198532;28;20102;-68
2022/11/02 07:33:48;;;;;;;4.05;2.63;;;;;;;22.15;48.96;102097.97;4199954;28;20114;-69
2022/11/02 07:35:49;;;;;;;2.83;2.28;;;;;;;22.17;48.92;102101.34;4203588;28;20044;-68
2022/11/02 07:37:58;;;;;;;2.50;2.30;;;;;;;22.16;48.87;102099.66;4200139;28;20036;-69
2022/11/02 07:39:59;;;;;;;2.50;2.30;;;;;;;22.20;48.86;102105.56;4200360;28;20037;-69
2022/11/02 07:42:01;;;;;;;2.15;1.95;;;;;;;22.18;48.62;102100.25;4199971;28;20033;-68
2022/11/02 07:44:02;;;;;;;2.45;2.03;;;;;;;22.04;48.82;102090.59;4197129;28;20041;-69
2022/11/02 07:46:05;;;;;;;3.85;2.65;;;;;;;22.15;48.65;102111.09;4184013;28;20045;-68
2022/11/02 07:48:06;;;;;;;3.22;2.30;;;;;;;22.17;48.88;102122.81;4199951;28;20557;-68
2022/11/02 07:50:07;;;;;;;2.40;2.15;;;;;;;22.16;48.59;102121.97;4199730;28;20036;-69
2022/11/02 07:52:14;;;;;;;2.53;2.33;;;;;;;22.15;48.88;102128.66;4199784;28;20102;-69
2022/11/02 07:54:16;;;;;;;2.47;2.28;;;;;;;22.16;48.75;102127.53;4198765;28;20040;-69
2022/11/02 07:56:20;;;;;;;2.60;2.40;;;;;;;22.17;48.66;102132.00;4203490;28;20033;-69
2022/11/02 07:58:21;;;;;;;2.63;2.42;;;;;;;22.18;48.77;102122.56;4199392;28;20101;-68
2022/11/02 08:00:28;;;;;;;2.60;2.40;;;;;;;22.19;48.57;102131.75;4199075;28;20105;-69
2022/11/02 08:02:29;;;;;;;3.72;2.60;;;;;;;22.18;48.64;102125.34;4199034;28;20097;-68
2022/11/02 08:04:30;;;;;;;2.50;2.30;;;;;;;22.20;48.84;102131.50;4199053;28;20048;-69
2022/11/02 08:06:34;;;;;;;2.70;2.50;;;;;;;22.20;48.72;102125.06;4199122;28;20038;-68
2022/11/02 08:08:38;;;;;;;3.33;2.70;;;;;;;22.19;48.60;102126.19;4199818;28;20041;-69
2022/11/02 08:10:44;;;;;;;2.63;2.42;;;;;;;22.17;48.77;102134.78;4199325;28;20082;-69
2022/11/02 08:12:45;;;;;;;3.25;2.28;;;;;;;22.06;48.64;102116.25;4198845;28;20048;-69
2022/11/02 08:14:46;;;;;;;2.67;2.40;;;;;;;22.20;48.92;102139.84;4197959;28;20640;-69
2022/11/02 08:16:51;;;;;;;3.13;2.40;;;;;;;22.19;48.55;102132.59;4198528;28;20565;-69
2022/11/02 08:18:57;;;;;;;2.60;2.40;;;;;;;22.20;48.60;102139.03;4198012;28;20106;-70
2022/11/02 08:21:05;;;;;;;3.60;2.30;;;;;;;22.19;48.69;102137.34;4199633;28;20078;-69
2022/11/02 08:23:08;;;;;;;2.55;2.35;;;;;;;22.19;48.85;102143.75;4197790;28;20098;-69
2022/11/02 08:25:09;;;;;;;2.63;2.08;;;;;;;22.20;48.76;102142.66;4182066;28;20438;-69
2022/11/02 08:27:14;;;;;;;3.33;2.50;;;;;;;22.18;48.87;102147.66;4198825;28;20045;-69
2022/11/02 08:29:15;;;;;;;2.43;2.23;;;;;;;22.19;48.95;102154.06;4199050;28;20048;-70
2022/11/02 08:31:16;;;;;;;2.97;2.22;;;;;;;22.16;48.63;102155.41;4185618;28;20082;-70
2022/11/02 08:33:19;;;;;;;2.92;2.50;;;;;;;22.18;48.79;102160.75;4199275;28;20093;-70
2022/11/02 08:35:20;;;;;;;3.30;2.50;;;;;;;22.17;48.86;102165.47;4201581;28;20085;-70
2022/11/02 08:37:22;;;;;;;3.25;2.40;;;;;;;22.17;48.56;102164.63;4201295;28;20033;-70
2022/11/02 08:39:23;;;;;;;3.67;2.60;;;;;;;22.11;48.71;102163.69;4199502;28;20029;-69
2022/11/02 08:41:27;;;;;;;2.72;2.50;;;;;;;22.13;48.68;102167.09;4199348;28;20544;-69
2022/11/02 08:43:28;;;;;;;2.40;2.20;;;;;;;22.10;48.70;102173.16;4198937;28;20044;-70
2022/11/02 08:45:31;;;;;;;2.45;2.25;;;;;;;22.12;48.86;102181.28;4201089;28;20094;-70
2022/11/02 08:47:32;;;;;;;2.35;2.15;;;;;;;22.12;48.95;102186.88;4198300;28;20044;-70
2022/11/02 08:49:33;;;;;;;2.63;2.20;;;;;;;22.10;48.91;102189.88;4197112;28;20040;-69
2022/11/02 08:51:35;;;;;;;3.08;2.40;;;;;;;22.10;49.01;102195.47;4197918;28;20036;-69
2022/11/02 08:53:39;;;;;;;3.05;2.80;;;;;;;22.09;48.90;102199.38;4199087;28;20094;-69
2022/11/02 08:55:42;;;;;;;2.47;2.28;;;;;;;22.09;48.80;102210.50;4202047;28;20130;-69
2022/11/02 08:57:45;;;;;;;2.92;2.15;;;;;;;21.92;49.00;102168.75;4198133;28;20044;-69
2022/11/02 08:59:47;;;;;;;2.33;2.13;;;;;;;22.11;48.90;102213.88;4197481;28;20027;-70
2022/11/02 09:01:48;;;;;;;2.80;2.60;;;;;;;22.11;48.65;102211.09;4197990;28;20102;-70
2022/11/02 09:03:49;;;;;;;3.33;2.28;;;;;;;22.10;49.09;102217.75;4198425;28;20098;-69
2022/11/02 09:05:59;;;;;;;2.58;2.05;;;;;;;22.07;49.15;102207.13;4197943;28;20028;-69
2022/11/02 09:08:03;;;;;;;2.80;2.40;;;;;;;22.08;49.21;102209.66;4182549;28;20453;-69
2022/11/02 09:10:08;;;;;;;2.55;2.35;;;;;;;22.07;49.01;102213.53;4201138;28;20121;-69
2022/11/02 09:12:09;;;;;;;2.50;2.22;;;;;;;22.03;48.98;102212.38;4198596;28;20045;-69
2022/11/02 09:14:10;;;;;;;2.95;2.67;;;;;;;21.88;49.18;102186.25;4198051;28;20036;-70
2022/11/02 09:16:12;;;;;;;2.53;2.20;;;;;;;22.04;48.96;102218.81;4196629;28;20048;-70
2022/11/02 09:18:13;;;;;;;2.65;2.25;;;;;;;22.04;49.01;102222.44;4201107;28;20044;-70
2022/11/02 09:20:16;;;;;;;2.92;2.38;;;;;;;22.04;49.06;102228.00;4198361;28;20130;-69
2022/11/02 09:22:17;;;;;;;2.42;2.22;;;;;;;22.04;49.24;102224.38;4198525;28;20094;-69
2022/11/02 09:24:18;;;;;;;3.03;2.60;;;;;;;22.05;49.34;102226.06;4198588;28;20036;-69
2022/11/02 09:26:19;;;;;;;2.92;2.63;;;;;;;21.99;49.24;102232.66;4197908;28;20049;-70
2022/11/02 09:28:21;;;;;;;2.67;2.47;;;;;;;22.04;49.36;102241.09;4197822;28;20090;-69
2022/11/02 09:30:24;;;;;;;2.92;2.50;;;;;;;22.04;48.90;102239.16;4195277;28;20313;-69
2022/11/02 09:32:25;;;;;;;3.65;2.40;;;;;;;22.04;49.07;102235.53;4198260;28;20040;-70
2022/11/02 09:34:33;;;;;;;3.00;2.47;;;;;;;22.03;49.21;102239.41;4197783;28;20048;-70
2022/11/02 09:36:34;;;;;;;2.45;2.25;;;;;;;22.00;49.05;102234.34;4201993;28;20032;-70
2022/11/02 09:38:35;;;;;;;2.35;2.15;;;;;;;22.03;49.09;102240.25;4198385;28;20545;-70
2022/11/02 09:40:40;;;;;;;2.75;2.42;;;;;;;22.02;49.11;102244.13;4197955;28;20070;-70
2022/11/02 09:43:20;;;;;;;2.70;2.50;;;;;;;21.99;49.08;102255.81;4196902;28;20036;-69
2022/11/02 09:45:22;;;;;;;2.72;2.35;;;;;;;22.03;49.30;102239.41;4196899;28;20036;-69
2022/11/02 09:47:26;;;;;;;2.90;2.25;;;;;;;22.04;49.27;102246.69;4201224;28;20102;-69
2022/11/02 09:49:32;;;;;;;2.50;2.30;;;;;;;21.87;49.21;102221.63;4197930;28;20048;-70
2022/11/02 09:51:37;;;;;;;3.25;2.80;;;;;;;21.99;49.25;102244.66;4198578;28;20102;-70